createdAt,value
2022-09-12T00:00:51.537Z,9.00
2022-09-12T00:03:18.165Z,8.94
2022-09-12T00:05:46.747Z,8.89
2022-09-12T00:08:13.933Z,8.88
2022-09-12T00:10:42.235Z,8.84
2022-09-12T00:13:09.023Z,8.80
2022-09-12T00:15:43.331Z,8.75
2022-09-12T00:18:13.888Z,8.74
2022-09-12T00:20:44.853Z,8.68
2022-09-12T00:23:12.392Z,8.64
2022-09-12T00:25:43.598Z,8.58
2022-09-12T00:28:10.861Z,8.55
2022-09-12T00:30:44.459Z,8.55
2022-09-12T00:33:11.759Z,8.50
2022-09-12T00:35:46.544Z,8.54
2022-09-12T00:38:14.183Z,8.55
2022-09-12T00:40:41.637Z,8.57
2022-09-12T00:43:30.078Z,8.60
2022-09-12T00:45:57.794Z,8.58
2022-09-12T00:48:31.030Z,8.54
2022-09-12T00:50:58.240Z,8.52
2022-09-12T00:53:25.630Z,8.49
2022-09-12T00:55:53.283Z,8.54
2022-09-12T00:58:23.798Z,8.61
2022-09-12T01:00:50.454Z,8.59
2022-09-12T01:03:19.795Z,8.50
2022-09-12T01:05:56.559Z,8.45
2022-09-12T01:08:23.474Z,8.42
2022-09-12T01:10:50.103Z,8.40
2022-09-12T01:13:16.640Z,8.37
2022-09-12T01:15:43.181Z,8.38
2022-09-12T01:18:42.679Z,8.40
2022-09-12T01:21:11.677Z,8.39
2022-09-12T01:24:01.899Z,8.36
2022-09-12T01:26:40.498Z,8.28
2022-09-12T01:29:31.816Z,8.20
2022-09-12T01:32:04.571Z,8.15
2022-09-12T01:34:37.260Z,8.14
2022-09-12T01:37:14.733Z,8.15
2022-09-12T01:40:28.908Z,8.12
2022-09-12T01:43:03.579Z,8.03
2022-09-12T01:45:34.152Z,8.00
2022-09-12T01:48:17.198Z,8.04
2022-09-12T01:51:26.657Z,8.03
2022-09-12T01:54:03.962Z,8.03
2022-09-12T01:56:33.439Z,8.00
2022-09-12T01:59:08.690Z,7.94
2022-09-12T02:01:38.544Z,7.93
2022-09-12T02:04:16.220Z,7.93
2022-09-12T02:06:52.726Z,7.94
2022-09-12T02:09:26.310Z,7.97
2022-09-12T02:11:58.285Z,8.03
2022-09-12T02:14:38.231Z,7.97
2022-09-12T02:17:12.131Z,7.99
2022-09-12T02:19:46.184Z,7.93
2022-09-12T02:22:16.187Z,7.83
2022-09-12T02:24:46.871Z,7.74
2022-09-12T02:27:40.363Z,7.69
2022-09-12T02:30:08.820Z,7.64
2022-09-12T02:32:48.377Z,7.63
2022-09-12T02:35:31.181Z,7.67
2022-09-12T02:38:15.063Z,7.77
2022-09-12T02:40:41.964Z,7.85
2022-09-12T02:43:08.608Z,7.77
2022-09-12T02:45:35.763Z,7.78
2022-09-12T02:48:15.355Z,7.79
2022-09-12T02:50:42.174Z,7.74
2022-09-12T02:53:09.519Z,7.70
2022-09-12T02:55:36.949Z,7.71
2022-09-12T02:58:05.657Z,7.64
2022-09-12T03:00:38.157Z,7.58
2022-09-12T03:03:07.556Z,7.53
2022-09-12T03:05:54.523Z,7.54
2022-09-12T03:08:51.751Z,7.47
2022-09-12T03:11:31.497Z,7.39
2022-09-12T03:14:11.140Z,7.39
2022-09-12T03:16:59.453Z,7.41
2022-09-12T03:19:59.170Z,7.40
2022-09-12T03:22:28.668Z,7.41
2022-09-12T03:24:58.538Z,7.42
2022-09-12T03:27:57.257Z,7.41
2022-09-12T03:30:23.798Z,7.48
2022-09-12T03:32:53.792Z,7.43
2022-09-12T03:35:23.253Z,7.40
2022-09-12T03:37:51.386Z,7.38
2022-09-12T03:40:18.342Z,7.34
2022-09-12T03:42:44.911Z,7.34
2022-09-12T03:45:11.628Z,7.25
2022-09-12T03:47:38.212Z,7.29
2022-09-12T03:50:05.141Z,7.33
2022-09-12T03:52:31.783Z,7.38
2022-09-12T03:54:58.320Z,7.33
2022-09-12T03:57:24.993Z,7.36
2022-09-12T03:59:51.541Z,7.36
2022-09-12T04:02:18.173Z,7.36
2022-09-12T04:04:46.254Z,7.32
2022-09-12T04:07:12.824Z,7.31
2022-09-12T04:09:39.371Z,7.29
2022-09-12T04:12:06.388Z,7.30
2022-09-12T04:14:32.902Z,7.34
2022-09-12T04:16:59.701Z,7.37
2022-09-12T04:19:26.871Z,7.31
2022-09-12T04:21:53.732Z,7.25
2022-09-12T04:24:20.263Z,7.23
2022-09-12T04:26:46.834Z,7.24
2022-09-12T04:29:14.996Z,7.29
2022-09-12T04:31:41.897Z,7.27
2022-09-12T04:34:08.766Z,7.31
2022-09-12T04:36:35.707Z,7.30
2022-09-12T04:39:03.438Z,7.35
2022-09-12T04:41:32.369Z,7.37
2022-09-12T04:44:07.580Z,7.36
2022-09-12T04:46:36.580Z,7.31
2022-09-12T04:49:03.512Z,7.25
2022-09-12T04:51:33.779Z,7.21
2022-09-12T04:54:02.837Z,7.22
2022-09-12T04:56:29.940Z,7.28
2022-09-12T04:58:58.243Z,7.29
2022-09-12T05:01:24.983Z,7.31
2022-09-12T05:03:52.890Z,7.35
2022-09-12T05:06:21.847Z,7.37
2022-09-12T05:08:48.521Z,7.44
2022-09-12T05:11:21.512Z,7.47
2022-09-12T05:13:50.794Z,7.50
2022-09-12T05:16:18.557Z,7.43
2022-09-12T05:18:45.868Z,7.51
2022-09-12T05:21:14.031Z,7.53
2022-09-12T05:23:40.763Z,7.57
2022-09-12T05:26:07.780Z,7.57
2022-09-12T05:28:36.676Z,7.63
2022-09-12T05:31:17.933Z,7.69
2022-09-12T05:33:46.617Z,7.64
2022-09-12T05:36:31.672Z,7.70
2022-09-12T05:39:00.010Z,7.75
2022-09-12T05:41:30.765Z,7.73
2022-09-12T05:43:59.504Z,7.75
2022-09-12T05:46:30.952Z,7.82
2022-09-12T05:48:58.439Z,7.88
2022-09-12T05:51:29.000Z,7.98
2022-09-12T05:53:57.405Z,8.04
2022-09-12T05:56:28.861Z,8.13
2022-09-12T05:59:03.476Z,8.20
2022-09-12T06:01:31.192Z,8.28
2022-09-12T06:04:00.940Z,8.37
2022-09-12T06:06:28.758Z,8.46
2022-09-12T06:09:01.109Z,8.62
2022-09-12T06:11:30.272Z,8.76
2022-09-12T06:13:58.107Z,8.94
2022-09-12T06:16:27.177Z,9.18
2022-09-12T06:18:58.520Z,9.47
2022-09-12T06:21:25.411Z,9.74
2022-09-12T06:23:54.141Z,9.98
2022-09-12T06:26:25.670Z,10.21
2022-09-12T06:28:54.013Z,10.39
2022-09-12T06:31:22.663Z,10.58
2022-09-12T06:33:51.821Z,10.92
2022-09-12T06:36:24.708Z,11.19
2022-09-12T06:38:57.132Z,11.45
2022-09-12T06:41:24.577Z,11.56
2022-09-12T06:43:51.168Z,11.78
2022-09-12T06:46:17.795Z,11.99
2022-09-12T06:48:44.716Z,12.13
2022-09-12T06:51:14.743Z,12.26
2022-09-12T06:53:42.279Z,12.46
2022-09-12T06:56:13.544Z,12.69
2022-09-12T06:58:40.725Z,12.88
2022-09-12T07:01:08.659Z,13.08
2022-09-12T07:03:36.015Z,13.32
2022-09-12T07:06:07.859Z,13.57
2022-09-12T07:08:36.839Z,13.81
2022-09-12T07:11:24.140Z,14.08
2022-09-12T07:13:56.236Z,14.43
2022-09-12T07:16:23.676Z,14.74
2022-09-12T07:18:51.895Z,15.00
2022-09-12T07:21:18.894Z,15.29
2022-09-12T07:23:45.717Z,15.60
2022-09-12T07:26:13.668Z,15.78
2022-09-12T07:28:40.594Z,16.04
2022-09-12T07:31:12.831Z,16.29
2022-09-12T07:33:40.119Z,16.40
2022-09-12T07:36:18.669Z,16.60
2022-09-12T07:38:46.511Z,16.65
2022-09-12T07:41:20.939Z,16.74
2022-09-12T07:43:48.348Z,16.64
2022-09-12T07:46:15.036Z,16.75
2022-09-12T07:48:41.606Z,16.59
2022-09-12T07:51:10.120Z,16.35
2022-09-12T07:53:41.616Z,16.34
2022-09-12T07:56:10.346Z,16.45
2022-09-12T07:58:38.394Z,16.54
2022-09-12T08:01:08.802Z,16.51
2022-09-12T08:03:42.436Z,16.50
2022-09-12T08:06:10.417Z,16.28
2022-09-12T08:08:37.281Z,16.41
2022-09-12T08:11:09.841Z,16.13
2022-09-12T08:13:38.192Z,16.26
2022-09-12T08:16:07.183Z,16.53
2022-09-12T08:18:36.363Z,16.58
2022-09-12T08:21:09.959Z,16.90
2022-09-12T08:23:36.480Z,17.14
2022-09-12T08:26:06.368Z,17.30
2022-09-12T08:28:34.905Z,17.35
2022-09-12T08:31:02.712Z,17.43
2022-09-12T08:33:33.590Z,17.55
2022-09-12T08:36:21.083Z,17.47
2022-09-12T08:38:49.751Z,17.38
2022-09-12T08:41:28.045Z,17.21
2022-09-12T08:44:22.457Z,17.20
2022-09-12T08:46:57.987Z,17.17
2022-09-12T08:49:34.408Z,17.40
2022-09-12T08:52:07.484Z,17.42
2022-09-12T08:54:34.253Z,17.73
2022-09-12T08:57:05.695Z,18.07
2022-09-12T08:59:37.630Z,18.46
2022-09-12T09:02:06.523Z,18.43
2022-09-12T09:04:45.267Z,18.69
2022-09-12T09:07:17.667Z,19.20
2022-09-12T09:10:07.931Z,19.59
2022-09-12T09:13:00.895Z,19.88
2022-09-12T09:15:50.572Z,19.62
2022-09-12T09:18:23.971Z,19.29
2022-09-12T09:20:58.233Z,19.46
2022-09-12T09:23:46.891Z,19.78
2022-09-12T09:26:16.989Z,20.06
2022-09-12T09:28:51.712Z,20.32
2022-09-12T09:31:21.343Z,20.36
2022-09-12T09:33:51.037Z,20.38
2022-09-12T09:36:34.829Z,20.55
2022-09-12T09:39:06.662Z,20.55
2022-09-12T09:42:01.018Z,21.03
2022-09-12T09:44:28.818Z,21.83
2022-09-12T09:46:56.108Z,22.20
2022-09-12T09:49:23.032Z,23.00
2022-09-12T09:51:49.543Z,23.81
2022-09-12T09:54:23.969Z,23.93
2022-09-12T09:56:50.639Z,24.67
2022-09-12T09:59:28.796Z,25.36
2022-09-12T10:01:58.181Z,26.07
2022-09-12T10:04:27.954Z,26.38
2022-09-12T10:06:57.067Z,27.30
2022-09-12T10:09:28.801Z,28.12
2022-09-12T10:11:56.895Z,28.12
2022-09-12T10:14:41.174Z,29.81
2022-09-12T10:17:34.490Z,28.10
2022-09-12T10:22:48.607Z,27.46
2022-09-12T10:25:17.008Z,28.01
2022-09-12T10:27:43.517Z,28.36
2022-09-12T10:30:18.759Z,28.13
2022-09-12T10:32:48.761Z,28.15
2022-09-12T10:35:23.732Z,26.36
2022-09-12T10:38:07.077Z,28.12
2022-09-12T10:40:43.158Z,28.34
2022-09-12T10:43:27.993Z,28.69
2022-09-12T10:46:17.493Z,28.77
2022-09-12T10:48:48.605Z,29.51
2022-09-12T10:51:24.336Z,28.48
2022-09-12T10:53:52.534Z,27.92
2022-09-12T10:56:18.973Z,27.51
2022-09-12T10:58:55.220Z,29.93
2022-09-12T11:01:41.574Z,32.45
2022-09-12T11:04:08.089Z,32.72
2022-09-12T11:06:50.060Z,33.07
2022-09-12T11:09:28.729Z,32.41
2022-09-12T11:12:01.260Z,30.78
2022-09-12T11:14:46.043Z,29.12
2022-09-12T11:17:31.175Z,31.03
2022-09-12T11:20:29.997Z,30.30
2022-09-12T11:23:26.152Z,30.21
2022-09-12T11:26:11.508Z,30.53
2022-09-12T11:29:16.887Z,29.07
2022-09-12T11:32:14.060Z,28.84
2022-09-12T11:34:59.759Z,28.92
2022-09-12T11:37:47.841Z,29.36
2022-09-12T11:40:31.773Z,29.97
2022-09-12T11:43:03.800Z,30.89
2022-09-12T11:45:36.733Z,30.82
2022-09-12T11:48:07.822Z,31.63
2022-09-12T11:50:34.455Z,30.31
2022-09-12T11:53:19.071Z,28.42
2022-09-12T11:56:07.116Z,27.35
2022-09-12T11:58:33.693Z,26.16
2022-09-12T12:01:10.563Z,27.43
2022-09-12T12:03:37.117Z,29.27
2022-09-12T12:06:07.560Z,31.74
2022-09-12T12:08:42.634Z,33.03
2022-09-12T12:11:10.458Z,29.76
2022-09-12T12:13:46.224Z,27.57
2022-09-12T12:16:25.135Z,29.36
2022-09-12T12:18:56.649Z,31.85
2022-09-12T12:21:32.168Z,29.47
2022-09-12T12:24:10.513Z,29.76
2022-09-12T12:26:40.437Z,29.96
2022-09-12T12:29:17.156Z,28.02
2022-09-12T12:32:05.743Z,29.54
2022-09-12T12:34:39.531Z,30.55
2022-09-12T12:37:29.728Z,31.47
2022-09-12T12:40:01.294Z,31.60
2022-09-12T12:42:36.863Z,35.35
2022-09-12T12:45:29.184Z,36.54
2022-09-12T12:47:58.015Z,36.90
2022-09-12T12:50:29.329Z,34.26
2022-09-12T12:53:17.016Z,34.64
2022-09-12T12:55:43.474Z,34.90
2022-09-12T12:58:30.536Z,32.70
2022-09-12T13:01:09.657Z,30.82
2022-09-12T13:03:36.790Z,30.58
2022-09-12T13:06:07.279Z,29.65
2022-09-12T13:08:34.291Z,30.13
2022-09-12T13:11:12.192Z,30.65
2022-09-12T13:13:41.795Z,28.85
2022-09-12T13:16:12.546Z,28.11
2022-09-12T13:18:48.690Z,27.50
2022-09-12T13:21:16.302Z,27.45
2022-09-12T13:23:43.605Z,27.27
2022-09-12T13:26:21.505Z,26.71
2022-09-12T13:28:48.691Z,25.56
2022-09-12T13:31:24.166Z,24.69
2022-09-12T13:33:58.497Z,24.80
2022-09-12T13:36:58.939Z,24.54
2022-09-12T13:39:46.482Z,23.86
2022-09-12T13:42:26.089Z,23.77
2022-09-12T13:44:58.954Z,24.01
2022-09-12T13:47:30.917Z,24.18
2022-09-12T13:49:57.807Z,23.72
2022-09-12T13:52:27.208Z,23.53
2022-09-12T13:54:56.121Z,23.86
2022-09-12T13:57:37.714Z,24.06
2022-09-12T14:00:24.585Z,24.04
2022-09-12T14:03:11.085Z,24.00
2022-09-12T14:05:39.476Z,23.91
2022-09-12T14:08:08.382Z,23.88
2022-09-12T14:10:36.860Z,24.06
2022-09-12T14:13:11.949Z,23.85
2022-09-12T14:15:38.767Z,24.24
2022-09-12T14:18:07.022Z,24.07
2022-09-12T14:20:37.217Z,23.89
2022-09-12T14:23:23.765Z,24.55
2022-09-12T14:25:50.452Z,24.95
2022-09-12T14:28:23.551Z,24.38
2022-09-12T14:31:02.446Z,23.99
2022-09-12T14:33:32.684Z,23.51
2022-09-12T14:36:19.768Z,22.96
2022-09-12T14:38:50.257Z,22.64
2022-09-12T14:41:24.977Z,22.39
2022-09-12T14:43:56.096Z,22.34
2022-09-12T14:46:35.474Z,22.18
2022-09-12T14:49:35.044Z,22.04
2022-09-12T14:52:04.080Z,22.09
2022-09-12T14:54:30.532Z,22.25
2022-09-12T14:56:59.149Z,22.20
2022-09-12T14:59:28.761Z,22.01
2022-09-12T15:02:13.480Z,22.11
2022-09-12T15:04:45.313Z,22.14
2022-09-12T15:07:29.213Z,22.14
2022-09-12T15:09:56.054Z,22.16
2022-09-12T15:12:22.939Z,22.16
2022-09-12T15:14:49.479Z,22.18
2022-09-12T15:17:15.993Z,22.11
2022-09-12T15:19:42.653Z,22.08
2022-09-12T15:22:15.126Z,22.27
2022-09-12T15:24:41.635Z,22.61
2022-09-12T15:27:12.137Z,22.30
2022-09-12T15:29:39.221Z,22.22
2022-09-12T15:32:06.840Z,22.44
2022-09-12T15:34:33.488Z,22.79
2022-09-12T15:37:00.004Z,22.92
2022-09-12T15:39:27.560Z,23.21
2022-09-12T15:41:54.105Z,22.54
2022-09-12T15:44:20.945Z,22.23
2022-09-12T15:46:47.536Z,22.10
2022-09-12T15:49:14.147Z,22.03
2022-09-12T15:51:40.640Z,21.92
2022-09-12T15:54:07.226Z,21.57
2022-09-12T15:56:33.858Z,21.35
2022-09-12T15:59:00.549Z,21.22
2022-09-12T16:01:28.565Z,21.07
2022-09-12T16:03:55.542Z,20.98
2022-09-12T16:06:22.565Z,20.92
2022-09-12T16:08:49.556Z,20.79
2022-09-12T16:11:27.284Z,20.74
2022-09-12T16:13:55.437Z,20.64
2022-09-12T16:16:22.086Z,20.55
2022-09-12T16:18:48.818Z,20.48
2022-09-12T16:21:15.946Z,20.38
2022-09-12T16:23:46.951Z,20.32
2022-09-12T16:26:13.551Z,20.28
2022-09-12T16:28:40.398Z,20.30
2022-09-12T16:31:08.132Z,20.35
2022-09-12T16:33:35.031Z,20.23
2022-09-12T16:36:06.933Z,20.23
2022-09-12T16:38:34.693Z,20.16
2022-09-12T16:41:05.231Z,20.11
2022-09-12T16:43:32.863Z,20.00
2022-09-12T16:46:02.865Z,19.98
2022-09-12T16:48:30.276Z,19.93
2022-09-12T16:50:58.540Z,19.87
2022-09-12T16:53:25.235Z,19.85
2022-09-12T16:55:51.723Z,19.74
2022-09-12T16:58:18.239Z,19.76
2022-09-12T17:00:44.722Z,19.70
2022-09-12T17:03:11.313Z,19.60
2022-09-12T17:05:37.971Z,19.53
2022-09-12T17:08:04.702Z,19.46
2022-09-12T17:10:32.631Z,19.38
2022-09-12T17:12:59.288Z,19.31
2022-09-12T17:15:26.017Z,19.28
2022-09-12T17:17:52.631Z,19.20
2022-09-12T17:20:19.221Z,19.13
2022-09-12T17:22:45.741Z,19.05
2022-09-12T17:25:12.237Z,18.96
2022-09-12T17:27:38.747Z,18.90
2022-09-12T17:30:05.845Z,18.87
2022-09-12T17:32:32.409Z,18.83
2022-09-12T17:34:59.213Z,18.74
2022-09-12T17:37:25.854Z,18.77
2022-09-12T17:39:52.387Z,18.75
2022-09-12T17:42:20.153Z,18.63
2022-09-12T17:44:46.648Z,18.49
2022-09-12T17:47:13.143Z,18.29
2022-09-12T17:49:40.288Z,18.12
2022-09-12T17:52:06.785Z,18.04
2022-09-12T17:54:33.312Z,17.93
2022-09-12T17:56:59.815Z,17.95
2022-09-12T17:59:26.468Z,17.93
2022-09-12T18:02:11.561Z,17.77
2022-09-12T18:04:38.787Z,17.67
2022-09-12T18:07:05.967Z,17.51
2022-09-12T18:09:32.722Z,17.26
2022-09-12T18:11:59.425Z,17.10
2022-09-12T18:14:28.935Z,16.97
2022-09-12T18:16:57.172Z,16.88
2022-09-12T18:19:24.520Z,16.80
2022-09-12T18:21:51.072Z,16.78
2022-09-12T18:24:17.625Z,16.69
2022-09-12T18:26:44.894Z,16.79
2022-09-12T18:29:12.556Z,16.78
2022-09-12T18:31:39.193Z,16.70
2022-09-12T18:34:06.804Z,16.54
2022-09-12T18:36:33.375Z,16.57
2022-09-12T18:39:00.823Z,16.71
2022-09-12T18:41:28.976Z,16.60
2022-09-12T18:43:56.599Z,16.74
2022-09-12T18:46:23.610Z,16.89
2022-09-12T18:48:50.556Z,16.87
2022-09-12T18:51:19.867Z,17.00
2022-09-12T18:53:58.280Z,17.02
2022-09-12T18:56:27.694Z,16.89
2022-09-12T18:58:57.713Z,16.88
2022-09-12T19:01:26.810Z,17.02
2022-09-12T19:03:54.266Z,17.23
2022-09-12T19:06:29.123Z,17.33
2022-09-12T19:08:56.964Z,17.48
2022-09-12T19:11:24.144Z,17.49
2022-09-12T19:13:52.027Z,17.50
2022-09-12T19:16:24.075Z,17.45
2022-09-12T19:18:52.366Z,17.43
2022-09-12T19:21:22.377Z,17.31
2022-09-12T19:23:49.199Z,17.34
2022-09-12T19:26:16.923Z,17.30
2022-09-12T19:28:43.707Z,17.12
2022-09-12T19:31:12.379Z,17.11
2022-09-12T19:33:39.164Z,17.18
2022-09-12T19:36:27.268Z,17.27
2022-09-12T19:38:55.113Z,17.20
2022-09-12T19:41:21.947Z,17.20
2022-09-12T19:43:48.460Z,17.23
2022-09-12T19:46:19.956Z,17.22
2022-09-12T19:48:47.214Z,17.26
2022-09-12T19:51:14.849Z,17.27
2022-09-12T19:53:41.815Z,17.26
2022-09-12T19:56:09.302Z,17.34
2022-09-12T19:58:41.183Z,17.32
2022-09-12T20:01:20.356Z,17.37
2022-09-12T20:03:47.446Z,17.34
2022-09-12T20:06:16.198Z,17.26
2022-09-12T20:08:43.953Z,17.31
2022-09-12T20:11:13.078Z,17.33
2022-09-12T20:13:40.222Z,17.38
2022-09-12T20:16:11.103Z,17.31
2022-09-12T20:18:38.134Z,17.15
2022-09-12T20:21:16.379Z,17.10
2022-09-12T20:23:43.286Z,17.01
2022-09-12T20:26:10.801Z,16.96
2022-09-12T20:28:38.032Z,16.86
2022-09-12T20:31:08.397Z,16.91
2022-09-12T20:33:34.965Z,16.73
2022-09-12T20:36:13.451Z,16.62
2022-09-12T20:38:41.035Z,16.55
2022-09-12T20:41:12.348Z,16.42
2022-09-12T20:43:39.755Z,16.40
2022-09-12T20:46:07.386Z,16.43
2022-09-12T20:48:34.003Z,16.45
2022-09-12T20:51:00.874Z,16.25
2022-09-12T20:53:30.639Z,16.05
2022-09-12T20:56:01.029Z,15.88
2022-09-12T20:58:27.547Z,15.85
2022-09-12T21:00:54.161Z,15.87
2022-09-12T21:03:20.651Z,15.81
2022-09-12T21:05:47.183Z,15.93
2022-09-12T21:08:14.432Z,15.99
2022-09-12T21:10:42.294Z,16.02
2022-09-12T21:13:12.847Z,16.06
2022-09-12T21:15:39.999Z,16.17
2022-09-12T21:18:07.070Z,16.23
2022-09-12T21:20:33.785Z,16.27
2022-09-12T21:23:00.349Z,16.24
2022-09-12T21:25:28.942Z,16.31
2022-09-12T21:27:55.527Z,16.41
2022-09-12T21:30:22.307Z,16.69
2022-09-12T21:32:48.885Z,16.82
2022-09-12T21:35:15.548Z,16.84
2022-09-12T21:37:42.040Z,16.92
2022-09-12T21:40:08.962Z,16.92
2022-09-12T21:42:35.562Z,16.92
2022-09-12T21:45:02.229Z,16.90
2022-09-12T21:47:28.757Z,16.81
2022-09-12T21:49:55.402Z,16.80
2022-09-12T21:52:22.037Z,16.79
2022-09-12T21:54:48.592Z,16.77
2022-09-12T21:57:15.154Z,16.89
2022-09-12T21:59:41.665Z,16.89
2022-09-12T22:02:08.763Z,16.94
2022-09-12T22:04:35.338Z,16.91
2022-09-12T22:07:02.164Z,16.92
2022-09-12T22:09:28.656Z,16.92
2022-09-12T22:11:55.650Z,16.98
2022-09-12T22:14:22.143Z,16.99
2022-09-12T22:16:49.455Z,16.93
2022-09-12T22:19:16.159Z,16.96
2022-09-12T22:22:02.644Z,16.94
2022-09-12T22:24:29.388Z,16.85
2022-09-12T22:26:56.792Z,16.70
2022-09-12T22:29:23.532Z,16.69
2022-09-12T22:31:50.414Z,16.60
2022-09-12T22:34:16.969Z,16.53
2022-09-12T22:36:44.237Z,16.43
2022-09-12T22:39:10.805Z,16.30
2022-09-12T22:41:37.559Z,16.23
2022-09-12T22:44:04.237Z,16.17
2022-09-12T22:46:30.865Z,16.13
2022-09-12T22:48:57.404Z,16.13
2022-09-12T22:51:24.037Z,16.13
2022-09-12T22:53:51.466Z,16.06
2022-09-12T22:56:18.044Z,15.90
2022-09-12T22:58:44.670Z,15.82
2022-09-12T23:01:11.638Z,15.78
2022-09-12T23:03:38.719Z,15.81
2022-09-12T23:06:06.004Z,15.79
2022-09-12T23:08:34.905Z,15.64
2022-09-12T23:11:11.841Z,15.49
2022-09-12T23:13:38.906Z,15.59
2022-09-12T23:16:07.995Z,15.70
2022-09-12T23:18:36.188Z,15.78
2022-09-12T23:21:05.124Z,15.81
2022-09-12T23:23:31.945Z,15.79
2022-09-12T23:26:13.435Z,15.75
2022-09-12T23:28:41.009Z,15.58
2022-09-12T23:31:09.498Z,15.32
2022-09-12T23:33:36.619Z,15.03
2022-09-12T23:36:06.740Z,15.05
2022-09-12T23:38:35.089Z,14.85
2022-09-12T23:41:03.372Z,14.80
2022-09-12T23:43:30.332Z,14.72
2022-09-12T23:45:58.046Z,14.66
2022-09-12T23:48:24.763Z,14.60
2022-09-12T23:50:51.755Z,14.62
2022-09-12T23:53:18.425Z,14.72
2022-09-12T23:55:45.415Z,14.89
2022-09-12T23:58:12.628Z,15.08
